Time;durP1;ratioP1;P1;durP2;ratioP2;P2;SDS_P1;SDS_P2;PMS_P1;PMS_P2;Temp;Humidity;BMP_temperature;BMP_pressure;BME280_temperature;BME280_humidity;BME280_pressure;Samples;Min_cycle;Max_cycle;Signal;HPM_P1;HPM_P2
2023/10/22 00:00:14;;;;;;;5.00;1.15;;;;;13.70;97429.00;;;;5032728;28;20045;-66
2023/10/22 00:02:41;;;;;;;2.63;1.13;;;;;13.80;97430.00;;;;5031435;28;20087;-66
2023/10/22 00:05:08;;;;;;;3.50;1.20;;;;;13.70;97434.00;;;;5030976;28;20529;-64
2023/10/22 00:07:36;;;;;;;3.75;0.93;;;;;13.80;97429.00;;;;5032729;28;20477;-65
2023/10/22 00:10:03;;;;;;;4.63;1.10;;;;;13.80;97431.00;;;;5030914;28;20127;-66
2023/10/22 00:12:30;;;;;;;5.55;0.98;;;;;13.80;97432.00;;;;5032884;28;20052;-64
2023/10/22 00:14:57;;;;;;;4.60;1.50;;;;;13.80;97433.00;;;;5032217;28;20042;-64
2023/10/22 00:17:23;;;;;;;1.25;0.93;;;;;13.80;97434.00;;;;5014916;28;20418;-65
2023/10/22 00:19:50;;;;;;;1.48;0.90;;;;;13.80;97430.00;;;;5032480;28;20120;-64
2023/10/22 00:22:17;;;;;;;6.45;1.40;;;;;13.80;97437.00;;;;5031229;28;20046;-66
2023/10/22 00:24:44;;;;;;;1.92;1.15;;;;;13.80;97433.00;;;;5030672;28;20041;-65
2023/10/22 00:27:11;;;;;;;3.22;1.00;;;;;13.80;97433.00;;;;5032289;28;20045;-64
2023/10/22 00:29:37;;;;;;;4.25;1.45;;;;;13.80;97439.00;;;;5032367;28;20046;-65
2023/10/22 00:32:04;;;;;;;3.85;1.30;;;;;13.80;97443.00;;;;5031203;28;20103;-66
2023/10/22 00:34:31;;;;;;;4.57;1.30;;;;;13.80;97444.00;;;;5031589;28;20064;-66
2023/10/22 00:36:58;;;;;;;4.20;1.33;;;;;13.70;97439.00;;;;5030708;28;20487;-67
2023/10/22 00:39:25;;;;;;;2.03;0.90;;;;;13.70;97438.00;;;;5032381;28;20045;-66
2023/10/22 00:41:51;;;;;;;4.38;1.42;;;;;13.60;97445.00;;;;5031071;28;20103;-66
2023/10/22 00:44:18;;;;;;;1.30;0.82;;;;;13.60;97453.00;;;;5014013;28;20091;-66
2023/10/22 00:46:48;;;;;;;2.03;0.88;;;;;13.60;97443.00;;;;5014819;28;20053;-66
2023/10/22 00:49:16;;;;;;;4.35;1.48;;;;;13.60;97446.00;;;;5030804;28;20148;-66
2023/10/22 00:51:44;;;;;;;4.30;1.85;;;;;13.60;97455.00;;;;5030762;28;20069;-66
2023/10/22 00:54:12;;;;;;;8.88;2.47;;;;;13.50;97445.00;;;;5030551;28;20113;-66
2023/10/22 00:56:39;;;;;;;3.22;1.00;;;;;13.50;97444.00;;;;5014433;28;20506;-66
2023/10/22 00:59:07;;;;;;;6.18;1.05;;;;;13.50;97449.00;;;;5030577;28;20041;-66
2023/10/22 01:01:33;;;;;;;4.50;1.45;;;;;13.50;97451.00;;;;5014584;28;20522;-67
2023/10/22 01:04:02;;;;;;;3.60;0.93;;;;;13.50;97446.00;;;;5030638;28;20056;-67
2023/10/22 01:06:30;;;;;;;3.78;1.05;;;;;13.40;97453.00;;;;5031417;28;20045;-67
2023/10/22 01:08:59;;;;;;;2.80;1.38;;;;;13.40;97453.00;;;;5030819;28;20128;-66
2023/10/22 01:11:25;;;;;;;2.40;1.00;;;;;13.40;97459.00;;;;5014349;28;20390;-66
2023/10/22 01:13:53;;;;;;;3.08;1.00;;;;;13.40;97454.00;;;;5030050;28;20132;-66
2023/10/22 01:16:19;;;;;;;3.15;1.02;;;;;13.40;97455.00;;;;5030363;28;20136;-66
2023/10/22 01:18:46;;;;;;;3.75;1.30;;;;;13.40;97457.00;;;;5032854;28;20092;-65
2023/10/22 01:21:13;;;;;;;3.92;0.90;;;;;13.40;97465.00;;;;5032811;28;20056;-65
2023/10/22 01:23:39;;;;;;;4.90;1.33;;;;;13.40;97458.00;;;;5034239;28;20491;-65
2023/10/22 01:26:07;;;;;;;4.00;1.27;;;;;13.40;97464.00;;;;5034567;28;20056;-66
2023/10/22 01:28:34;;;;;;;3.78;0.90;;;;;13.40;97464.00;;;;5034848;28;20046;-66
2023/10/22 01:31:04;;;;;;;4.55;1.00;;;;;13.40;97467.00;;;;5036612;28;20406;-67
2023/10/22 01:33:32;;;;;;;3.75;1.15;;;;;13.40;97471.00;;;;5018044;28;20107;-66
2023/10/22 01:35:59;;;;;;;3.30;1.17;;;;;13.40;97463.00;;;;5035723;28;20045;-66
2023/10/22 01:38:26;;;;;;;5.28;1.25;;;;;13.40;97471.00;;;;5035314;28;20416;-66
2023/10/22 01:40:53;;;;;;;4.78;1.40;;;;;13.40;97469.00;;;;5017780;28;20046;-66
2023/10/22 01:43:19;;;;;;;6.50;1.23;;;;;13.30;97469.00;;;;5034885;28;20080;-67
2023/10/22 01:45:46;;;;;;;3.05;1.00;;;;;13.30;97468.00;;;;5053582;28;20045;-66
2023/10/22 01:48:13;;;;;;;5.75;1.40;;;;;13.20;97465.00;;;;5059280;28;20030;-66
2023/10/22 01:50:40;;;;;;;4.90;1.38;;;;;13.20;97469.00;;;;5060044;28;20034;-65
2023/10/22 01:53:07;;;;;;;1.95;0.98;;;;;13.10;97466.00;;;;5059435;28;20033;-64
2023/10/22 01:55:34;;;;;;;5.07;1.27;;;;;13.10;97467.00;;;;5049620;28;20144;-66
2023/10/22 01:58:00;;;;;;;5.18;1.02;;;;;13.10;97476.00;;;;5050274;28;20046;-64
2023/10/22 02:00:28;;;;;;;5.50;1.10;;;;;13.10;97472.00;;;;5054353;28;20053;-65
2023/10/22 02:02:54;;;;;;;2.30;0.80;;;;;13.00;97477.00;;;;5038576;28;20092;-65
2023/10/22 02:05:23;;;;;;;3.42;0.98;;;;;13.00;97471.00;;;;5056318;28;20029;-65
2023/10/22 02:07:49;;;;;;;2.40;1.00;;;;;13.00;97471.00;;;;5048373;28;20049;-67
2023/10/22 02:10:16;;;;;;;4.20;1.05;;;;;12.90;97472.00;;;;5051534;28;20054;-64
2023/10/22 02:12:42;;;;;;;6.60;1.30;;;;;12.90;97470.00;;;;5051480;28;20076;-66
2023/10/22 02:15:09;;;;;;;4.38;1.08;;;;;12.80;97463.00;;;;5033982;28;20080;-65
2023/10/22 02:17:38;;;;;;;4.85;1.02;;;;;12.80;97467.00;;;;5017423;28;20498;-66
2023/10/22 02:20:08;;;;;;;3.28;1.20;;;;;12.70;97464.00;;;;5016960;28;20526;-66
2023/10/22 02:22:37;;;;;;;3.03;1.10;;;;;12.70;97469.00;;;;5017140;28;20495;-66
2023/10/22 02:25:06;;;;;;;7.47;1.27;;;;;12.70;97472.00;;;;5033923;28;20049;-66
2023/10/22 02:27:32;;;;;;;4.15;1.10;;;;;12.70;97470.00;;;;5034214;28;20041;-66
2023/10/22 02:30:00;;;;;;;4.05;1.55;;;;;12.70;97468.00;;;;5033237;28;20100;-66
2023/10/22 02:32:26;;;;;;;4.78;1.63;;;;;12.70;97475.00;;;;5034016;28;20084;-66
2023/10/22 02:34:53;;;;;;;6.78;1.42;;;;;12.70;97473.00;;;;5033633;28;20048;-67
2023/10/22 02:37:20;;;;;;;5.22;1.50;;;;;12.60;97471.00;;;;5033010;28;20079;-66
2023/10/22 02:39:47;;;;;;;5.32;0.93;;;;;12.60;97487.00;;;;5034220;28;20053;-67
2023/10/22 02:42:14;;;;;;;3.95;1.20;;;;;12.60;97479.00;;;;5035553;28;20038;-67
2023/10/22 02:44:41;;;;;;;2.97;1.20;;;;;12.60;97475.00;;;;5033111;28;20045;-67
2023/10/22 02:47:11;;;;;;;4.90;1.20;;;;;12.50;97477.00;;;;5034734;28;20073;-67
2023/10/22 02:49:38;;;;;;;3.88;1.10;;;;;12.50;97475.00;;;;5034787;28;20477;-66
2023/10/22 02:52:05;;;;;;;3.40;1.05;;;;;12.50;97479.00;;;;5033440;28;20045;-66
2023/10/22 02:54:31;;;;;;;3.80;1.30;;;;;12.50;97482.00;;;;5032344;28;20045;-65
2023/10/22 02:56:58;;;;;;;5.47;1.67;;;;;12.50;97483.00;;;;5033198;28;20494;-64
2023/10/22 02:59:27;;;;;;;5.85;1.50;;;;;12.50;97477.00;;;;5036106;28;20049;-65
2023/10/22 03:01:53;;;;;;;6.53;1.08;;;;;12.50;97482.00;;;;5019618;28;20050;-64
2023/10/22 03:04:20;;;;;;;6.72;1.70;;;;;12.50;97485.00;;;;5035194;28;20049;-66
2023/10/22 03:06:47;;;;;;;7.78;1.98;;;;;12.50;97484.00;;;;5034224;28;20057;-65
2023/10/22 03:09:13;;;;;;;5.47;1.45;;;;;12.50;97488.00;;;;5035789;28;20095;-67
2023/10/22 03:11:41;;;;;;;3.00;1.23;;;;;12.50;97488.00;;;;5035822;28;20049;-66
2023/10/22 03:14:08;;;;;;;3.88;1.23;;;;;12.50;97489.00;;;;5033907;28;20081;-64
2023/10/22 03:16:35;;;;;;;3.72;1.08;;;;;12.60;97486.00;;;;5034936;28;20107;-64
2023/10/22 03:19:02;;;;;;;6.03;1.40;;;;;12.60;97482.00;;;;5035938;28;20042;-65
2023/10/22 03:21:33;;;;;;;4.70;1.15;;;;;12.60;97489.00;;;;5037145;28;20083;-64
2023/10/22 03:24:03;;;;;;;2.92;1.30;;;;;12.50;97485.00;;;;5037578;28;20045;-64
2023/10/22 03:26:30;;;;;;;6.82;1.50;;;;;12.50;97498.00;;;;5018015;28;20041;-66
2023/10/22 03:28:57;;;;;;;8.38;1.50;;;;;12.50;97502.00;;;;5032548;28;20048;-66
2023/10/22 03:31:24;;;;;;;6.35;1.20;;;;;12.60;97502.00;;;;5033758;28;20116;-68
2023/10/22 03:33:54;;;;;;;5.43;1.77;;;;;12.50;97500.00;;;;5032741;28;20041;-67
2023/10/22 03:36:20;;;;;;;4.55;1.20;;;;;12.50;97505.00;;;;5032085;28;20045;-67
2023/10/22 03:38:47;;;;;;;4.57;1.80;;;;;12.50;97503.00;;;;5032013;28;20049;-67
2023/10/22 03:41:14;;;;;;;8.18;1.58;;;;;12.50;97515.00;;;;5015602;28;20049;-67
2023/10/22 03:43:41;;;;;;;6.95;1.73;;;;;12.50;97509.00;;;;5030660;28;20395;-67
2023/10/22 03:46:08;;;;;;;2.97;1.35;;;;;12.50;97513.00;;;;5032451;28;20099;-67
2023/10/22 03:48:35;;;;;;;5.88;1.30;;;;;12.50;97514.00;;;;5032134;28;20173;-67
2023/10/22 03:51:03;;;;;;;4.60;1.52;;;;;12.40;97516.00;;;;5032624;28;20128;-66
2023/10/22 03:53:30;;;;;;;9.90;1.92;;;;;12.40;97518.00;;;;5015203;28;20077;-66
2023/10/22 03:55:57;;;;;;;4.15;1.00;;;;;12.50;97519.00;;;;5033388;28;20402;-67
2023/10/22 03:58:25;;;;;;;5.05;1.13;;;;;12.50;97533.00;;;;5032856;28;20491;-67
2023/10/22 04:00:55;;;;;;;5.45;1.63;;;;;12.50;97534.00;;;;5031692;28;20048;-67
2023/10/22 04:03:22;;;;;;;7.10;1.45;;;;;12.50;97531.00;;;;5032938;28;20049;-66
2023/10/22 04:05:58;;;;;;;7.18;1.60;;;;;12.50;97536.00;;;;5014785;28;20053;-67
2023/10/22 04:08:26;;;;;;;6.70;1.30;;;;;12.50;97533.00;;;;5032972;28;20042;-67
2023/10/22 04:10:53;;;;;;;6.38;1.63;;;;;12.50;97548.00;;;;5031675;28;20053;-67
2023/10/22 04:13:19;;;;;;;3.80;1.27;;;;;12.50;97553.00;;;;5032726;28;20046;-66
2023/10/22 04:15:48;;;;;;;4.93;1.13;;;;;12.60;97556.00;;;;5031981;28;20136;-67
2023/10/22 04:18:16;;;;;;;4.57;1.33;;;;;12.50;97559.00;;;;5032431;28;20052;-67
2023/10/22 04:20:43;;;;;;;4.60;1.17;;;;;12.50;97554.00;;;;5032508;28;20617;-65
2023/10/22 04:23:10;;;;;;;5.90;1.35;;;;;12.50;97560.00;;;;5032359;28;20109;-65
2023/10/22 04:25:43;;;;;;;6.75;1.27;;;;;12.50;97560.00;;;;5031765;28;20080;-65
2023/10/22 04:28:11;;;;;;;7.22;1.40;;;;;12.50;97566.00;;;;5032267;28;20414;-65
2023/10/22 04:30:45;;;;;;;5.22;1.27;;;;;12.50;97572.00;;;;5031242;28;20051;-65
2023/10/22 04:33:12;;;;;;;6.75;1.40;;;;;12.50;97573.00;;;;5032320;28;20505;-65
2023/10/22 04:35:40;;;;;;;13.45;1.83;;;;;12.50;97584.00;;;;5030438;28;20144;-64
2023/10/22 04:38:06;;;;;;;8.75;2.03;;;;;12.40;97581.00;;;;5030851;28;20045;-65
2023/10/22 04:40:34;;;;;;;7.65;1.20;;;;;12.50;97589.00;;;;5032150;28;20132;-65
2023/10/22 04:43:02;;;;;;;3.13;1.00;;;;;12.50;97600.00;;;;5032175;28;20049;-65
2023/10/22 04:45:28;;;;;;;4.00;1.05;;;;;12.50;97594.00;;;;5031597;28;20042;-66
2023/10/22 04:47:55;;;;;;;11.93;1.40;;;;;12.50;97590.00;;;;5032151;28;20042;-65
2023/10/22 04:50:24;;;;;;;5.63;1.58;;;;;12.50;97589.00;;;;5030928;28;20053;-65
2023/10/22 04:52:51;;;;;;;4.22;1.48;;;;;12.50;97592.00;;;;5032229;28;20059;-67
2023/10/22 04:55:19;;;;;;;6.00;1.25;;;;;12.50;97600.00;;;;5031893;28;20505;-67
2023/10/22 04:57:45;;;;;;;5.70;1.55;;;;;12.50;97599.00;;;;5019541;28;20055;-67
2023/10/22 05:00:13;;;;;;;5.10;1.27;;;;;12.50;97608.00;;;;5036704;28;20049;-67
2023/10/22 05:02:40;;;;;;;6.68;1.48;;;;;12.50;97610.00;;;;5036016;28;20133;-68
2023/10/22 05:05:07;;;;;;;7.97;1.70;;;;;12.50;97604.00;;;;5035372;28;20136;-68
2023/10/22 05:07:33;;;;;;;6.68;1.67;;;;;12.40;97600.00;;;;5035387;28;20429;-67
2023/10/22 05:10:00;;;;;;;8.48;1.80;;;;;12.40;97603.00;;;;5034949;28;20046;-68
2023/10/22 05:12:27;;;;;;;7.82;1.75;;;;;12.50;97605.00;;;;5035568;28;20570;-68
2023/10/22 05:14:54;;;;;;;5.70;1.50;;;;;12.50;97608.00;;;;5036437;28;20073;-67
2023/10/22 05:17:21;;;;;;;8.23;2.17;;;;;12.40;97615.00;;;;5036044;28;20434;-67
2023/10/22 05:19:48;;;;;;;10.00;1.90;;;;;12.50;97614.00;;;;5035665;28;20562;-66
2023/10/22 05:22:17;;;;;;;9.85;1.83;;;;;12.50;97614.00;;;;5035713;28;20375;-68
2023/10/22 05:24:48;;;;;;;9.80;1.80;;;;;12.50;97615.00;;;;5035013;28;20041;-68
2023/10/22 05:27:17;;;;;;;3.72;1.50;;;;;12.40;97619.00;;;;5035653;28;20439;-67
2023/10/22 05:29:46;;;;;;;11.38;2.05;;;;;12.40;97619.00;;;;5035767;28;20065;-68
2023/10/22 05:32:16;;;;;;;9.38;1.83;;;;;12.40;97615.00;;;;5034233;28;20079;-68
2023/10/22 05:34:43;;;;;;;6.90;1.60;;;;;12.40;97624.00;;;;5033585;28;20041;-68
2023/10/22 05:37:10;;;;;;;5.78;2.00;;;;;12.40;97623.00;;;;5034000;28;20072;-68
2023/10/22 05:39:39;;;;;;;9.07;1.70;;;;;12.40;97634.00;;;;5034107;28;20057;-68
2023/10/22 05:42:06;;;;;;;5.07;1.63;;;;;12.40;97634.00;;;;5035193;28;20091;-68
2023/10/22 05:44:36;;;;;;;6.93;1.58;;;;;12.40;97629.00;;;;5034459;28;20041;-70
2023/10/22 05:47:04;;;;;;;4.55;1.35;;;;;12.40;97645.00;;;;5033983;28;20439;-66
2023/10/22 05:49:31;;;;;;;6.03;1.08;;;;;12.40;97644.00;;;;5035171;28;20046;-65
2023/10/22 05:51:57;;;;;;;4.95;1.38;;;;;12.40;97647.00;;;;5035467;28;20068;-65
2023/10/22 05:54:24;;;;;;;8.77;1.35;;;;;12.50;97654.00;;;;5034605;28;20041;-66
2023/10/22 05:56:51;;;;;;;5.18;1.80;;;;;12.50;97662.00;;;;5033893;28;20061;-66
2023/10/22 05:59:17;;;;;;;5.32;1.45;;;;;12.60;97656.00;;;;5037898;28;20372;-67
2023/10/22 06:01:44;;;;;;;6.25;1.55;;;;;12.60;97663.00;;;;5038336;28;20037;-67
2023/10/22 06:04:11;;;;;;;6.22;1.60;;;;;12.60;97673.00;;;;5035957;28;20128;-66
2023/10/22 06:06:38;;;;;;;6.90;1.30;;;;;12.60;97669.00;;;;5034948;28;20494;-64
2023/10/22 06:09:04;;;;;;;7.47;1.75;;;;;12.60;97669.00;;;;5034361;28;20219;-64
2023/10/22 06:11:31;;;;;;;4.30;1.10;;;;;12.60;97673.00;;;;5034017;28;20056;-65
2023/10/22 06:13:58;;;;;;;4.43;1.30;;;;;12.60;97680.00;;;;5034259;28;20096;-65
2023/10/22 06:16:24;;;;;;;5.72;1.55;;;;;12.70;97673.00;;;;5034489;28;20048;-65
2023/10/22 06:18:51;;;;;;;6.65;1.60;;;;;12.70;97681.00;;;;5034401;28;20037;-65
2023/10/22 06:21:18;;;;;;;13.13;5.22;;;;;12.70;97683.00;;;;5033431;28;20068;-66
2023/10/22 06:23:45;;;;;;;5.50;1.15;;;;;12.70;97688.00;;;;5033911;28;20061;-66
2023/10/22 06:26:12;;;;;;;8.63;1.75;;;;;12.70;97692.00;;;;5034360;28;20048;-66
2023/10/22 06:28:40;;;;;;;6.00;1.35;;;;;12.70;97704.00;;;;5034327;28;20063;-67
2023/10/22 06:31:09;;;;;;;5.20;1.40;;;;;12.80;97710.00;;;;5032962;28;20060;-67
2023/10/22 06:33:36;;;;;;;5.30;1.38;;;;;12.80;97707.00;;;;5016074;28;20088;-67
2023/10/22 06:36:14;;;;;;;8.85;1.50;;;;;12.90;97702.00;;;;5033203;28;20043;-67
2023/10/22 06:38:42;;;;;;;5.70;1.25;;;;;12.90;97710.00;;;;5033186;28;20045;-67
2023/10/22 06:41:14;;;;;;;7.15;2.05;;;;;12.90;97719.00;;;;5016609;28;20057;-67
2023/10/22 06:43:41;;;;;;;8.50;1.85;;;;;13.00;97731.00;;;;5033252;28;20045;-66
2023/10/22 06:46:08;;;;;;;3.15;1.13;;;;;13.10;97734.00;;;;5032723;28;20072;-67
2023/10/22 06:48:35;;;;;;;6.57;2.00;;;;;13.10;97738.00;;;;5032601;28;20052;-65
2023/10/22 06:51:03;;;;;;;7.18;1.70;;;;;13.10;97745.00;;;;5033870;28;20096;-66
2023/10/22 06:53:30;;;;;;;3.70;1.10;;;;;13.10;97751.00;;;;5033585;28;20041;-67
2023/10/22 06:55:57;;;;;;;8.25;1.63;;;;;13.10;97752.00;;;;5016658;28;20507;-65
2023/10/22 06:58:23;;;;;;;4.50;1.65;;;;;13.10;97747.00;;;;5033004;28;20065;-65
2023/10/22 07:00:51;;;;;;;5.00;1.30;;;;;13.20;97755.00;;;;5033778;28;20041;-65
2023/10/22 07:03:18;;;;;;;5.60;1.55;;;;;13.20;97757.00;;;;5032404;28;20083;-65
2023/10/22 07:05:45;;;;;;;10.50;1.58;;;;;13.20;97756.00;;;;5033154;28;20449;-65
2023/10/22 07:08:13;;;;;;;6.85;1.75;;;;;13.30;97762.00;;;;5033671;28;20038;-66
2023/10/22 07:10:39;;;;;;;7.00;1.50;;;;;13.30;97766.00;;;;5033506;28;20041;-66
2023/10/22 07:13:06;;;;;;;7.22;1.70;;;;;13.30;97756.00;;;;5032159;28;20045;-65
2023/10/22 07:15:33;;;;;;;8.38;1.77;;;;;13.30;97762.00;;;;5032901;28;20037;-66
2023/10/22 07:17:59;;;;;;;5.93;1.50;;;;;13.40;97767.00;;;;5033196;28;20103;-64
2023/10/22 07:20:26;;;;;;;4.60;1.40;;;;;13.40;97761.00;;;;5032308;28;20461;-65
2023/10/22 07:22:53;;;;;;;9.07;1.90;;;;;13.40;97766.00;;;;5031938;28;20128;-65
2023/10/22 07:25:19;;;;;;;5.03;1.85;;;;;13.40;97772.00;;;;5031333;28;20045;-65
2023/10/22 07:27:48;;;;;;;6.85;1.73;;;;;13.50;97768.00;;;;5031953;28;20045;-66
2023/10/22 07:30:14;;;;;;;6.50;1.40;;;;;13.50;97775.00;;;;5033309;28;20068;-65
2023/10/22 07:32:41;;;;;;;4.82;1.50;;;;;13.50;97765.00;;;;5033087;28;20044;-65
2023/10/22 07:35:08;;;;;;;4.55;1.50;;;;;13.60;97767.00;;;;5032514;28;20056;-65
2023/10/22 07:37:37;;;;;;;5.10;1.75;;;;;13.60;97774.00;;;;5032786;28;20042;-65
2023/10/22 07:40:04;;;;;;;8.70;1.75;;;;;13.60;97774.00;;;;5015419;28;20103;-68
2023/10/22 07:42:31;;;;;;;5.60;1.92;;;;;13.60;97777.00;;;;5033344;28;20125;-66
2023/10/22 07:44:57;;;;;;;4.93;1.70;;;;;13.60;97777.00;;;;5032797;28;20660;-66
2023/10/22 07:47:24;;;;;;;6.88;1.83;;;;;13.60;97786.00;;;;5033388;28;20049;-66
2023/10/22 07:49:51;;;;;;;5.18;1.42;;;;;13.70;97787.00;;;;5033540;28;20042;-66
2023/10/22 07:52:18;;;;;;;11.38;1.63;;;;;13.70;97792.00;;;;5035234;28;20053;-67
2023/10/22 07:54:47;;;;;;;5.95;1.63;;;;;13.70;97796.00;;;;5036900;28;20072;-67
2023/10/22 07:57:14;;;;;;;9.80;1.77;;;;;13.70;97791.00;;;;5036165;28;20136;-71
2023/10/22 07:59:40;;;;;;;9.85;2.00;;;;;13.70;97795.00;;;;5034719;28;20037;-67
2023/10/22 08:02:07;;;;;;;7.88;1.95;;;;;13.70;97796.00;;;;5034108;28;20049;-67
2023/10/22 08:04:35;;;;;;;8.10;1.90;;;;;13.70;97804.00;;;;5034699;28;20069;-67
2023/10/22 08:07:03;;;;;;;10.45;1.85;;;;;13.70;97807.00;;;;5035406;28;20045;-66
2023/10/22 08:09:30;;;;;;;6.82;2.03;;;;;13.70;97802.00;;;;5033787;28;20055;-67
2023/10/22 08:11:57;;;;;;;9.02;1.75;;;;;13.70;97809.00;;;;5034515;28;20099;-66
2023/10/22 08:14:24;;;;;;;8.70;1.95;;;;;13.70;97806.00;;;;5032541;28;20056;-67
2023/10/22 08:16:51;;;;;;;9.48;1.67;;;;;13.70;97812.00;;;;5032083;28;20060;-67
2023/10/22 08:19:17;;;;;;;6.25;1.65;;;;;13.70;97815.00;;;;5031431;28;20049;-68
2023/10/22 08:21:44;;;;;;;7.95;1.50;;;;;13.80;97807.00;;;;5032378;28;20084;-66
2023/10/22 08:24:11;;;;;;;9.23;5.13;;;;;13.80;97811.00;;;;5030493;28;20045;-64
2023/10/22 08:26:38;;;;;;;12.50;2.20;;;;;13.90;97808.00;;;;5032467;28;20045;-65
2023/10/22 08:29:05;;;;;;;7.80;2.10;;;;;14.00;97815.00;;;;5032130;28;20046;-65
2023/10/22 08:31:32;;;;;;;10.40;2.17;;;;;14.10;97808.00;;;;5030663;28;20140;-66
2023/10/22 08:33:58;;;;;;;6.60;1.65;;;;;14.20;97811.00;;;;5030289;28;20045;-65
2023/10/22 08:36:26;;;;;;;5.25;1.42;;;;;14.90;97806.00;;;;5032139;28;20048;-66
2023/10/22 08:38:53;;;;;;;6.53;1.63;;;;;15.60;97823.00;;;;5031984;28;20052;-65
2023/10/22 08:41:22;;;;;;;6.63;1.80;;;;;15.30;97819.00;;;;5032018;28;20080;-64
2023/10/22 08:43:49;;;;;;;10.02;2.05;;;;;15.10;97832.00;;;;5031438;28;20076;-64
2023/10/22 08:46:16;;;;;;;6.05;1.73;;;;;15.10;97833.00;;;;5032062;28;20045;-65
2023/10/22 08:48:44;;;;;;;8.55;1.80;;;;;15.00;97835.00;;;;5032145;28;20055;-64
2023/10/22 08:51:10;;;;;;;9.10;1.90;;;;;15.00;97838.00;;;;5030751;28;20137;-65
2023/10/22 08:53:37;;;;;;;11.10;1.63;;;;;15.00;97844.00;;;;5031631;28;20438;-65
2023/10/22 08:56:04;;;;;;;9.82;2.08;;;;;14.90;97841.00;;;;5031845;28;20132;-65
2023/10/22 08:58:31;;;;;;;6.68;1.98;;;;;14.90;97845.00;;;;5031703;28;20045;-65
2023/10/22 09:00:58;;;;;;;9.70;2.50;;;;;14.90;97853.00;;;;5031661;28;20132;-65
2023/10/22 09:03:25;;;;;;;11.73;2.47;;;;;14.90;97844.00;;;;5031552;28;20498;-66
2023/10/22 09:05:53;;;;;;;10.27;2.45;;;;;15.00;97853.00;;;;5031603;28;20045;-64
2023/10/22 09:08:20;;;;;;;7.80;2.33;;;;;15.00;97851.00;;;;5031715;28;20045;-65
2023/10/22 09:10:48;;;;;;;11.48;2.33;;;;;15.20;97853.00;;;;5031594;28;20494;-66
2023/10/22 09:13:17;;;;;;;5.72;1.90;;;;;15.20;97857.00;;;;5031689;28;20125;-65
2023/10/22 09:15:46;;;;;;;7.78;2.40;;;;;15.20;97851.00;;;;5030786;28;20560;-65
2023/10/22 09:18:14;;;;;;;9.70;2.00;;;;;15.20;97858.00;;;;5030345;28;20045;-66
2023/10/22 09:20:42;;;;;;;10.45;1.98;;;;;15.30;97855.00;;;;5031536;28;20560;-65
2023/10/22 09:23:19;;;;;;;11.15;2.45;;;;;15.50;97854.00;;;;5031446;28;20125;-65
2023/10/22 09:25:48;;;;;;;6.70;2.00;;;;;15.70;97864.00;;;;5031049;28;20069;-65
2023/10/22 09:28:26;;;;;;;8.27;2.25;;;;;15.90;97863.00;;;;5031391;28;20043;-66
2023/10/22 09:31:11;;;;;;;8.77;1.80;;;;;16.10;97871.00;;;;5031602;28;20042;-66
2023/10/22 09:33:42;;;;;;;9.95;2.13;;;;;16.20;97863.00;;;;5029918;28;20414;-65
2023/10/22 09:36:11;;;;;;;9.20;2.10;;;;;16.30;97863.00;;;;5031470;28;20041;-65
2023/10/22 09:38:48;;;;;;;8.88;1.92;;;;;16.30;97870.00;;;;5030081;28;20095;-65
2023/10/22 09:41:27;;;;;;;11.00;2.40;;;;;16.40;97883.00;;;;5031343;28;20059;-66
2023/10/22 09:44:00;;;;;;;10.52;2.38;;;;;16.40;97872.00;;;;5034263;28;20049;-66
2023/10/22 09:46:32;;;;;;;9.65;2.55;;;;;16.40;97889.00;;;;5033909;28;20072;-64
2023/10/22 09:49:01;;;;;;;9.75;2.45;;;;;16.30;97885.00;;;;5034779;28;20045;-67
2023/10/22 09:51:34;;;;;;;8.35;2.25;;;;;16.10;97894.00;;;;5034182;28;20096;-67
2023/10/22 09:54:05;;;;;;;8.43;2.70;;;;;16.10;97889.00;;;;5037270;28;20072;-65
2023/10/22 09:56:37;;;;;;;7.82;2.50;;;;;16.10;97888.00;;;;5039201;28;20053;-65
2023/10/22 09:59:07;;;;;;;8.65;2.33;;;;;16.20;97883.00;;;;5041901;28;20158;-65
2023/10/22 10:01:35;;;;;;;13.95;3.95;;;;;16.40;97876.00;;;;5038596;28;20038;-65
2023/10/22 10:04:05;;;;;;;13.20;2.65;;;;;16.60;97887.00;;;;5037301;28;20124;-66
2023/10/22 10:06:34;;;;;;;14.05;2.38;;;;;16.70;97899.00;;;;5036530;28;20140;-66
2023/10/22 10:09:03;;;;;;;12.93;2.75;;;;;16.80;97892.00;;;;5035894;28;20049;-66
2023/10/22 10:11:34;;;;;;;8.60;2.15;;;;;17.10;97898.00;;;;5035243;28;20038;-66
2023/10/22 10:14:35;;;;;;;9.98;2.75;;;;;17.20;97904.00;;;;5034178;28;20091;-66
2023/10/22 10:17:03;;;;;;;11.13;2.80;;;;;17.30;97896.00;;;;5023109;28;20502;-65
2023/10/22 10:19:30;;;;;;;7.93;2.45;;;;;17.20;97906.00;;;;5016712;28;20057;-65
2023/10/22 10:21:57;;;;;;;8.70;2.10;;;;;17.30;97910.00;;;;5033474;28;20045;-65
2023/10/22 10:24:26;;;;;;;9.57;2.15;;;;;17.30;97919.00;;;;5033867;28;20057;-66
2023/10/22 10:26:59;;;;;;;10.43;2.80;;;;;17.20;97912.00;;;;5034381;28;20045;-66
2023/10/22 10:29:28;;;;;;;10.55;2.20;;;;;17.20;97921.00;;;;5033436;28;20056;-67
2023/10/22 10:32:15;;;;;;;9.88;2.22;;;;;17.30;97916.00;;;;5034431;28;20041;-67
2023/10/22 10:34:52;;;;;;;10.90;2.20;;;;;17.30;97921.00;;;;5033530;28;20046;-67
2023/10/22 10:37:20;;;;;;;11.50;2.20;;;;;17.40;97920.00;;;;5032868;28;20053;-65
2023/10/22 10:39:52;;;;;;;9.75;2.50;;;;;17.50;97919.00;;;;5032881;28;20045;-65
2023/10/22 10:42:31;;;;;;;8.05;2.47;;;;;17.50;97909.00;;;;5034173;28;20483;-66
2023/10/22 10:44:57;;;;;;;7.95;2.22;;;;;17.50;97916.00;;;;5033288;28;20049;-67
2023/10/22 10:47:24;;;;;;;6.55;1.70;;;;;17.30;97925.00;;;;5034037;28;20041;-66
2023/10/22 10:50:02;;;;;;;17.40;2.75;;;;;17.10;97923.00;;;;5034450;28;20037;-67
2023/10/22 10:52:31;;;;;;;13.77;3.05;;;;;16.90;97918.00;;;;5034029;28;20050;-68
2023/10/22 10:54:59;;;;;;;5.85;1.58;;;;;16.70;97922.00;;;;5031838;28;20046;-67
2023/10/22 10:57:41;;;;;;;11.40;2.53;;;;;16.60;97908.00;;;;5034234;28;20041;-68
2023/10/22 11:00:10;;;;;;;8.98;2.50;;;;;16.60;97912.00;;;;5033896;28;20037;-67
2023/10/22 11:02:43;;;;;;;10.57;2.63;;;;;16.60;97911.00;;;;5033773;28;20045;-66
2023/10/22 11:05:10;;;;;;;7.57;1.80;;;;;16.60;97923.00;;;;5032202;28;20380;-68
2023/10/22 11:07:37;;;;;;;7.88;2.28;;;;;16.60;97926.00;;;;5033492;28;20105;-67
2023/10/22 11:10:15;;;;;;;9.35;2.47;;;;;16.70;97921.00;;;;5033473;28;20140;-68
2023/10/22 11:12:44;;;;;;;10.45;2.60;;;;;16.80;97920.00;;;;5033537;28;20083;-66
2023/10/22 11:15:13;;;;;;;10.68;2.40;;;;;16.90;97919.00;;;;5032839;28;20049;-66
2023/10/22 11:17:41;;;;;;;8.27;1.92;;;;;16.90;97925.00;;;;5033463;28;20407;-67
2023/10/22 11:20:09;;;;;;;6.32;2.15;;;;;16.80;97919.00;;;;5033142;28;20487;-67
2023/10/22 11:22:36;;;;;;;8.40;2.42;;;;;16.90;97921.00;;;;5033151;28;20073;-66
2023/10/22 11:25:10;;;;;;;11.88;2.40;;;;;17.10;97919.00;;;;5032600;28;20121;-65
2023/10/22 11:27:38;;;;;;;10.35;1.90;;;;;17.30;97927.00;;;;5031827;28;20489;-66
2023/10/22 11:30:06;;;;;;;7.47;2.47;;;;;17.30;97936.00;;;;5033083;28;20087;-66
2023/10/22 11:32:37;;;;;;;11.25;2.28;;;;;17.20;97932.00;;;;5031688;28;20045;-68
2023/10/22 11:35:07;;;;;;;8.95;2.08;;;;;17.30;97933.00;;;;5032322;28;20056;-67
2023/10/22 11:37:38;;;;;;;8.25;2.10;;;;;17.40;97931.00;;;;5033067;28;20048;-65
2023/10/22 11:40:29;;;;;;;7.43;2.00;;;;;17.60;97934.00;;;;5015304;28;20137;-66
2023/10/22 11:43:03;;;;;;;9.63;3.53;;;;;17.90;97935.00;;;;5026737;28;20140;-65
2023/10/22 11:45:32;;;;;;;12.10;2.38;;;;;18.20;97930.00;;;;5032227;28;20049;-66
2023/10/22 11:48:12;;;;;;;5.93;1.50;;;;;18.30;97919.00;;;;5032942;28;20045;-67
2023/10/22 11:50:43;;;;;;;8.63;2.28;;;;;18.50;97932.00;;;;5032800;28;20120;-66
2023/10/22 11:53:09;;;;;;;9.23;2.00;;;;;18.60;97936.00;;;;5032945;28;20406;-65
2023/10/22 11:55:38;;;;;;;8.43;1.75;;;;;18.70;97938.00;;;;5030933;28;20140;-66
2023/10/22 11:58:19;;;;;;;6.97;1.90;;;;;18.80;97934.00;;;;5032796;28;20466;-68
2023/10/22 12:00:49;;;;;;;6.80;2.30;;;;;18.90;97942.00;;;;5015744;28;20037;-65
2023/10/22 12:03:16;;;;;;;6.80;1.58;;;;;19.10;97926.00;;;;5031868;28;20073;-65
2023/10/22 12:05:43;;;;;;;6.07;2.10;;;;;19.30;97936.00;;;;5029826;28;20512;-66
2023/10/22 12:08:10;;;;;;;10.43;2.42;;;;;19.40;97925.00;;;;5031298;28;20481;-66
2023/10/22 12:10:37;;;;;;;6.50;2.03;;;;;19.50;97933.00;;;;5031059;28;20045;-64
2023/10/22 12:13:06;;;;;;;8.95;2.60;;;;;19.50;97934.00;;;;5031311;28;20599;-64
2023/10/22 12:15:34;;;;;;;8.45;2.78;;;;;19.70;97937.00;;;;5030845;28;20516;-67
2023/10/22 12:18:02;;;;;;;6.22;1.95;;;;;19.80;97942.00;;;;4999320;28;20057;-67
2023/10/22 12:20:30;;;;;;;7.78;2.10;;;;;19.80;97948.00;;;;5014685;28;20097;-66